Time;durP1;ratioP1;P1;durP2;ratioP2;P2;SDS_P1;SDS_P2;PMS_P1;PMS_P2;Temp;Humidity;BMP_temperature;BMP_pressure;BME280_temperature;BME280_humidity;BME280_pressure;Samples;Min_cycle;Max_cycle;Signal;HPM_P1;HPM_P2
2021/12/13 00:01:44;;;;;;;61.05;16.65;;;;;;;;;;5045544;28;20052;-64
2021/12/13 00:04:17;;;;;;;59.78;16.25;;;;;;;;;;5045018;28;20071;-64
2021/12/13 00:06:46;;;;;;;56.33;16.80;;;;;;;;;;5045808;28;20103;-64
2021/12/13 00:09:16;;;;;;;59.72;16.58;;;;;;;;;;5045283;28;20041;-64
2021/12/13 00:11:45;;;;;;;53.42;16.15;;;;;;;;;;5045164;28;20088;-64
2021/12/13 00:14:20;;;;;;;59.47;16.88;;;;;;;;;;5044369;28;20490;-65
2021/12/13 00:16:48;;;;;;;55.95;16.83;;;;;;;;;;5045384;28;20049;-64
2021/12/13 00:19:16;;;;;;;54.58;16.92;;;;;;;;;;5045294;28;20049;-64
2021/12/13 00:21:45;;;;;;;58.28;16.63;;;;;;;;;;5045373;28;20045;-65
2021/12/13 00:24:15;;;;;;;55.92;17.10;;;;;;;;;;5045139;28;20417;-65
2021/12/13 00:26:43;;;;;;;57.83;18.23;;;;;;;;;;5044642;28;20112;-65
2021/12/13 00:29:11;;;;;;;52.80;17.08;;;;;;;;;;5044877;28;20041;-65
2021/12/13 00:31:45;;;;;;;57.08;17.05;;;;;;;;;;5041865;28;20033;-65
2021/12/13 00:34:12;;;;;;;55.47;16.65;;;;;;;;;;5045020;28;20052;-65
2021/12/13 00:36:42;;;;;;;54.45;17.60;;;;;;;;;;5045296;28;20421;-64
2021/12/13 00:39:12;;;;;;;48.25;17.23;;;;;;;;;;5045491;28;20049;-65
2021/12/13 00:41:38;;;;;;;48.92;15.95;;;;;;;;;;5044171;28;20144;-65
2021/12/13 00:44:07;;;;;;;47.70;15.55;;;;;;;;;;5045341;28;20957;-65
2021/12/13 00:46:35;;;;;;;49.72;17.35;;;;;;;;;;5042024;28;20121;-64
2021/12/13 00:49:02;;;;;;;61.90;17.92;;;;;;;;;;5044735;28;20132;-65
2021/12/13 00:51:30;;;;;;;50.83;16.88;;;;;;;;;;5044638;28;20037;-65
2021/12/13 00:54:00;;;;;;;46.13;16.20;;;;;;;;;;5043384;28;20834;-65
2021/12/13 00:56:42;;;;;;;44.85;15.52;;;;;;;;;;5044422;28;20041;-65
2021/12/13 00:59:10;;;;;;;49.92;17.10;;;;;;;;;;5042726;28;20083;-65
2021/12/13 01:01:37;;;;;;;53.17;17.75;;;;;;;;;;5045199;28;20041;-64
2021/12/13 01:04:06;;;;;;;51.63;17.70;;;;;;;;;;5044997;28;20044;-65
2021/12/13 01:06:49;;;;;;;42.00;16.38;;;;;;;;;;5044887;28;20052;-65
2021/12/13 01:09:42;;;;;;;47.63;16.17;;;;;;;;;;5045013;28;20049;-65
2021/12/13 01:12:10;;;;;;;38.17;14.18;;;;;;;;;;5043834;28;20403;-65
2021/12/13 01:14:39;;;;;;;34.67;13.70;;;;;;;;;;5043784;28;20049;-65
2021/12/13 01:17:20;;;;;;;39.30;13.05;;;;;;;;;;5044948;28;20090;-65
2021/12/13 01:19:54;;;;;;;30.45;13.32;;;;;;;;;;5045362;28;20057;-65
2021/12/13 01:22:41;;;;;;;27.65;11.45;;;;;;;;;;5048761;28;20437;-65
2021/12/13 01:25:21;;;;;;;25.65;11.80;;;;;;;;;;5046642;28;20469;-64
2021/12/13 01:27:51;;;;;;;23.58;10.43;;;;;;;;;;5048474;28;20546;-65
2021/12/13 01:30:28;;;;;;;25.00;10.70;;;;;;;;;;5048474;28;20106;-65
2021/12/13 01:32:56;;;;;;;24.33;10.45;;;;;;;;;;5048506;28;20103;-65
2021/12/13 01:35:24;;;;;;;19.52;9.85;;;;;;;;;;5048818;28;20116;-65
2021/12/13 01:37:53;;;;;;;21.08;10.05;;;;;;;;;;5048417;28;20039;-65
2021/12/13 01:40:19;;;;;;;;;;;;;;;;;;5049055;28;20049;-65
2021/12/13 01:42:45;;;;;;;25.30;10.23;;;;;;;;;;5048654;28;19921;-65
2021/12/13 01:45:14;;;;;;;18.85;9.70;;;;;;;;;;5048167;28;20068;-65
2021/12/13 01:47:42;;;;;;;22.70;9.68;;;;;;;;;;5047766;28;20037;-65
2021/12/13 01:50:08;;;;;;;23.08;10.88;;;;;;;;;;5048155;28;20045;-65
2021/12/13 01:52:37;;;;;;;25.65;10.52;;;;;;;;;;5048211;28;20804;-65
2021/12/13 01:55:07;;;;;;;21.30;10.25;;;;;;;;;;5047322;28;20063;-65
2021/12/13 01:57:47;;;;;;;26.02;10.57;;;;;;;;;;5048019;28;20040;-65
2021/12/13 02:00:18;;;;;;;24.48;11.23;;;;;;;;;;5046796;28;20057;-65
2021/12/13 02:02:46;;;;;;;20.20;10.50;;;;;;;;;;5047675;28;20699;-64
2021/12/13 02:05:16;;;;;;;21.52;10.43;;;;;;;;;;5044755;28;20045;-64
2021/12/13 02:07:53;;;;;;;24.75;11.43;;;;;;;;;;5047658;28;20126;-65
2021/12/13 02:10:23;;;;;;;25.00;12.20;;;;;;;;;;5046146;28;20045;-64
2021/12/13 02:12:57;;;;;;;26.65;11.65;;;;;;;;;;5047670;28;20163;-64
2021/12/13 02:18:12;;;;;;;27.95;12.43;;;;;;;;;;5046745;28;20040;-65
2021/12/13 02:20:42;;;;;;;25.67;12.40;;;;;;;;;;5047391;28;20137;-65
2021/12/13 02:23:08;;;;;;;26.55;12.57;;;;;;;;;;5047217;28;20041;-65
2021/12/13 02:25:37;;;;;;;27.73;12.38;;;;;;;;;;5047021;28;20065;-65
2021/12/13 02:28:06;;;;;;;22.98;11.75;;;;;;;;;;5047036;28;20874;-64
2021/12/13 02:30:43;;;;;;;28.55;12.48;;;;;;;;;;5047168;28;20504;-65
2021/12/13 02:33:11;;;;;;;23.95;11.85;;;;;;;;;;5047655;28;20072;-64
2021/12/13 02:35:39;;;;;;;29.42;12.82;;;;;;;;;;5047305;28;20053;-65
2021/12/13 02:38:07;;;;;;;27.35;12.45;;;;;;;;;;5046735;28;20150;-65
2021/12/13 02:40:34;;;;;;;24.48;12.00;;;;;;;;;;5046423;28;20036;-64
2021/12/13 02:43:01;;;;;;;27.88;12.70;;;;;;;;;;5045904;28;20713;-65
2021/12/13 02:45:29;;;;;;;25.27;10.68;;;;;;;;;;5047275;28;20072;-64
2021/12/13 02:48:00;;;;;;;32.78;12.68;;;;;;;;;;5046806;28;20483;-65
2021/12/13 02:50:30;;;;;;;32.67;12.10;;;;;;;;;;5047250;28;20063;-65
2021/12/13 02:52:58;;;;;;;25.40;11.50;;;;;;;;;;5046945;28;20139;-65
2021/12/13 02:55:28;;;;;;;26.77;11.60;;;;;;;;;;5047076;28;20048;-64
2021/12/13 02:57:55;;;;;;;27.25;11.48;;;;;;;;;;5043561;28;20076;-65
2021/12/13 03:00:25;;;;;;;26.05;11.52;;;;;;;;;;5047504;28;20105;-64
2021/12/13 03:02:53;;;;;;;24.35;11.68;;;;;;;;;;5047591;28;20060;-64
2021/12/13 03:05:23;;;;;;;30.05;11.77;;;;;;;;;;5046131;28;20072;-65
2021/12/13 03:07:51;;;;;;;28.48;12.15;;;;;;;;;;5046898;28;20332;-64
2021/12/13 03:10:20;;;;;;;28.38;11.80;;;;;;;;;;5045104;28;20045;-65
2021/12/13 03:12:47;;;;;;;29.05;10.73;;;;;;;;;;5045269;28;20040;-64
2021/12/13 03:15:15;;;;;;;25.15;11.80;;;;;;;;;;5046225;28;20056;-64
2021/12/13 03:17:44;;;;;;;28.13;11.10;;;;;;;;;;5046880;28;20487;-64
2021/12/13 03:20:22;;;;;;;23.73;10.48;;;;;;;;;;5046333;28;20056;-64
2021/12/13 03:23:04;;;;;;;27.67;11.13;;;;;;;;;;5043833;28;20048;-65
2021/12/13 03:25:40;;;;;;;26.98;11.85;;;;;;;;;;5045525;28;20091;-64
2021/12/13 03:28:06;;;;;;;26.30;11.43;;;;;;;;;;5045931;28;20483;-65
2021/12/13 03:30:36;;;;;;;29.40;10.57;;;;;;;;;;5046425;28;20040;-65
2021/12/13 03:33:05;;;;;;;25.75;10.90;;;;;;;;;;5046161;28;20404;-65
2021/12/13 03:35:35;;;;;;;24.15;11.05;;;;;;;;;;5045763;28;20052;-64
2021/12/13 03:38:04;;;;;;;30.30;10.75;;;;;;;;;;5045848;28;20045;-64
2021/12/13 03:40:31;;;;;;;25.95;10.70;;;;;;;;;;5045365;28;20482;-65
2021/12/13 03:43:00;;;;;;;19.42;9.52;;;;;;;;;;5045203;28;20830;-65
2021/12/13 03:45:28;;;;;;;24.95;9.77;;;;;;;;;;5046043;28;20037;-64
2021/12/13 03:47:56;;;;;;;21.55;9.73;;;;;;;;;;5045785;28;20047;-65
2021/12/13 03:50:26;;;;;;;21.42;8.85;;;;;;;;;;5046408;28;20051;-65
2021/12/13 03:52:56;;;;;;;19.85;8.80;;;;;;;;;;5046284;28;20049;-64
2021/12/13 03:55:23;;;;;;;23.17;8.50;;;;;;;;;;5043542;28;20033;-64
2021/12/13 03:57:52;;;;;;;20.17;9.60;;;;;;;;;;5046639;28;20044;-64
2021/12/13 04:00:20;;;;;;;22.05;8.73;;;;;;;;;;5045529;28;20502;-65
2021/12/13 04:02:47;;;;;;;22.35;9.70;;;;;;;;;;5043944;28;20490;-64
2021/12/13 04:05:15;;;;;;;18.73;8.15;;;;;;;;;;5045364;28;20261;-65
2021/12/13 04:07:45;;;;;;;25.15;8.68;;;;;;;;;;5045673;28;20068;-64
2021/12/13 04:10:14;;;;;;;18.08;8.75;;;;;;;;;;5044651;28;20052;-65
2021/12/13 04:12:47;;;;;;;19.75;8.35;;;;;;;;;;5045874;28;20067;-65
2021/12/13 04:15:25;;;;;;;25.88;8.70;;;;;;;;;;5045223;28;20045;-65
2021/12/13 04:18:00;;;;;;;17.80;7.97;;;;;;;;;;5045123;28;20045;-64
2021/12/13 04:20:29;;;;;;;19.05;6.70;;;;;;;;;;5045227;28;20131;-65
2021/12/13 04:22:57;;;;;;;17.85;7.38;;;;;;;;;;5045217;28;20545;-65
2021/12/13 04:25:29;;;;;;;19.77;7.20;;;;;;;;;;5045445;28;20043;-64
2021/12/13 04:27:57;;;;;;;16.50;7.28;;;;;;;;;;5042767;28;20428;-65
2021/12/13 04:30:26;;;;;;;17.98;7.45;;;;;;;;;;5045058;28;20051;-65
2021/12/13 04:32:54;;;;;;;18.25;7.13;;;;;;;;;;5044132;28;20482;-64
2021/12/13 04:35:21;;;;;;;11.80;6.43;;;;;;;;;;5045748;28;20547;-65
2021/12/13 04:37:49;;;;;;;18.48;6.70;;;;;;;;;;5045123;28;20033;-65
2021/12/13 04:40:17;;;;;;;17.35;6.82;;;;;;;;;;5044114;28;20045;-64
2021/12/13 04:42:44;;;;;;;15.15;6.82;;;;;;;;;;5042999;28;20045;-64
2021/12/13 04:45:10;;;;;;;15.07;6.38;;;;;;;;;;5045123;28;20033;-64
2021/12/13 04:47:39;;;;;;;14.10;6.35;;;;;;;;;;5045192;28;20048;-64
2021/12/13 04:50:06;;;;;;;16.02;6.57;;;;;;;;;;5044800;28;20048;-64
2021/12/13 04:52:33;;;;;;;17.83;6.53;;;;;;;;;;5044755;28;20056;-64
2021/12/13 04:55:00;;;;;;;16.20;6.60;;;;;;;;;;5043521;28;20494;-65
2021/12/13 04:57:27;;;;;;;17.90;5.97;;;;;;;;;;5049158;28;20033;-64
2021/12/13 04:59:55;;;;;;;16.20;7.13;;;;;;;;;;5049896;28;20083;-64
2021/12/13 05:02:22;;;;;;;17.17;7.40;;;;;;;;;;5048799;28;20056;-64
2021/12/13 05:04:50;;;;;;;15.90;6.93;;;;;;;;;;5049334;28;20036;-65
2021/12/13 05:07:16;;;;;;;;;;;;;;;;;;5047832;28;20045;-64
2021/12/13 05:09:46;;;;;;;19.50;7.20;;;;;;;;;;5046689;28;19998;-64
2021/12/13 05:12:14;;;;;;;24.55;7.78;;;;;;;;;;5048182;28;20371;-64
2021/12/13 05:14:49;;;;;;;15.25;7.35;;;;;;;;;;5048527;28;20503;-67
2021/12/13 05:17:17;;;;;;;14.88;7.32;;;;;;;;;;5048953;28;20102;-64
2021/12/13 05:19:46;;;;;;;20.33;7.20;;;;;;;;;;5049168;28;20037;-64
2021/12/13 05:22:12;;;;;;;;;;;;;;;;;;5048457;28;20041;-65
2021/12/13 05:24:43;;;;;;;17.20;7.43;;;;;;;;;;5047909;28;20276;-64
2021/12/13 05:27:12;;;;;;;17.17;7.68;;;;;;;;;;5048561;28;20037;-65
2021/12/13 05:29:41;;;;;;;12.85;6.72;;;;;;;;;;5048738;28;20045;-64
2021/12/13 05:32:10;;;;;;;15.63;7.35;;;;;;;;;;5048161;28;20494;-64
2021/12/13 05:34:39;;;;;;;14.45;6.20;;;;;;;;;;5048548;28;20041;-65
2021/12/13 05:37:06;;;;;;;;;;;;;;;;;;5048744;28;20098;-65
2021/12/13 05:39:33;;;;;;;;;;;;;;;;;;5048091;28;20294;-65
2021/12/13 05:41:59;;;;;;;;;;;;;;;;;;5048367;28;20060;-65
2021/12/13 05:44:25;;;;;;;;;;;;;;;;;;5047458;28;21922;-65
2021/12/13 05:46:51;;;;;;;;;;;;;;;;;;5049070;28;19928;-65
2021/12/13 05:49:17;;;;;;;;;;;;;;;;;;5048633;28;20293;-65
2021/12/13 05:51:43;;;;;;;;;;;;;;;;;;5047556;28;19925;-64
2021/12/13 05:54:09;;;;;;;;;;;;;;;;;;5048519;28;19924;-65
2021/12/13 05:56:35;;;;;;;;;;;;;;;;;;5047790;28;19921;-65
2021/12/13 05:59:01;;;;;;;;;;;;;;;;;;5046885;28;20357;-68
2021/12/13 06:01:27;;;;;;;;;;;;;;;;;;5047219;28;19920;-65
2021/12/13 06:03:53;;;;;;;;;;;;;;;;;;5048469;28;19921;-67
2021/12/13 06:06:19;;;;;;;;;;;;;;;;;;5048255;28;19923;-64
2021/12/13 06:08:45;;;;;;;;;;;;;;;;;;5048423;28;20701;-65
2021/12/13 06:11:12;;;;;;;;;;;;;;;;;;5046903;28;19980;-67
2021/12/13 06:13:38;;;;;;;;;;;;;;;;;;5047414;28;19928;-65
2021/12/13 06:16:04;;;;;;;;;;;;;;;;;;5047498;28;20371;-66
2021/12/13 06:18:31;;;;;;;;;;;;;;;;;;5048245;28;20382;-65
2021/12/13 06:20:57;;;;;;;;;;;;;;;;;;5045829;28;19920;-65
2021/12/13 06:26:25;;;;;;;;;;;;;;;;;;5044741;28;19924;-65
2021/12/13 06:34:15;;;;;;;;;;;;;;;;;;4351178;22;20345;-69
2021/12/13 06:36:42;;;;;;;;;;;;;;;;;;5045443;28;19921;-70
2021/12/13 06:39:08;;;;;;;;;;;;;;;;;;5047833;28;19924;-70
2021/12/13 06:41:35;;;;;;;;;;;;;;;;;;5046717;28;19936;-69
2021/12/13 06:44:01;;;;;;;;;;;;;;;;;;5048010;28;19927;-70
2021/12/13 06:46:28;;;;;;;;;;;;;;;;;;5048602;28;19927;-70
2021/12/13 06:48:58;;;;;;;;;;;;;;;;;;5047948;28;19925;-71
2021/12/13 06:51:24;;;;;;;;;;;;;;;;;;5061106;28;19947;-69
2021/12/13 06:53:51;;;;;;;;;;;;;;;;;;5047790;28;20281;-71
2021/12/13 06:56:17;;;;;;;;;;;;;;;;;;5048281;28;20373;-68
2021/12/13 06:58:43;;;;;;;;;;;;;;;;;;5048414;28;20347;-70
2021/12/13 07:01:09;;;;;;;;;;;;;;;;;;5047729;28;20484;-67
2021/12/13 07:03:35;;;;;;;;;;;;;;;;;;5047712;28;19920;-70
2021/12/13 07:06:01;;;;;;;;;;;;;;;;;;5049026;28;19916;-69
2021/12/13 07:08:27;;;;;;;;;;;;;;;;;;5048453;28;19943;-67
2021/12/13 07:10:55;;;;;;;;;;;;;;;;;;5047566;28;19920;-68
2021/12/13 07:13:21;;;;;;;;;;;;;;;;;;5048320;28;20003;-68
2021/12/13 07:15:47;;;;;;;;;;;;;;;;;;5048371;28;19939;-68
2021/12/13 07:18:13;;;;;;;;;;;;;;;;;;5047673;28;19921;-68
2021/12/13 07:20:39;;;;;;;;;;;;;;;;;;5047528;28;19990;-68
2021/12/13 07:23:05;;;;;;;;;;;;;;;;;;5047319;28;20023;-68
2021/12/13 07:25:31;;;;;;;;;;;;;;;;;;5045836;28;19921;-70
2021/12/13 07:27:57;;;;;;;;;;;;;;;;;;5046059;28;19927;-68
2021/12/13 07:30:23;;;;;;;;;;;;;;;;;;5047380;28;20269;-68
2021/12/13 07:32:49;;;;;;;;;;;;;;;;;;5046241;28;19920;-68
2021/12/13 07:35:16;;;;;;;;;;;;;;;;;;5045969;28;20278;-68
2021/12/13 07:37:42;;;;;;;;;;;;;;;;;;5046598;28;19965;-68
2021/12/13 07:40:08;;;;;;;;;;;;;;;;;;5046226;28;19920;-68
2021/12/13 07:42:34;;;;;;;;;;;;;;;;;;5045672;28;20366;-68
2021/12/13 07:45:00;;;;;;;;;;;;;;;;;;5047677;28;19928;-67
2021/12/13 07:47:26;;;;;;;;;;;;;;;;;;5046790;28;19916;-68
2021/12/13 07:49:52;;;;;;;;;;;;;;;;;;5045269;28;20031;-68
2021/12/13 07:52:18;;;;;;;;;;;;;;;;;;5046913;28;20421;-68
2021/12/13 07:54:45;;;;;;;;;;;;;;;;;;5046656;28;19916;-68
2021/12/13 07:57:11;;;;;;;;;;;;;;;;;;5046851;28;20541;-68
2021/12/13 07:59:37;;;;;;;;;;;;;;;;;;5046644;28;20001;-67
2021/12/13 08:02:05;;;;;;;;;;;;;;;;;;5045800;28;19928;-72
2021/12/13 08:04:31;;;;;;;;;;;;;;;;;;5045948;28;20333;-68
2021/12/13 08:06:57;;;;;;;;;;;;;;;;;;5046648;28;20424;-68
2021/12/13 08:09:23;;;;;;;;;;;;;;;;;;5046188;28;20616;-68
2021/12/13 08:11:49;;;;;;;;;;;;;;;;;;5046790;28;20396;-68
2021/12/13 08:14:15;;;;;;;;;;;;;;;;;;5046674;28;19924;-68
2021/12/13 08:16:41;;;;;;;;;;;;;;;;;;5045507;28;20085;-68
2021/12/13 08:19:07;;;;;;;;;;;;;;;;;;5045368;28;20607;-68
2021/12/13 08:21:33;;;;;;;;;;;;;;;;;;5046606;28;20370;-69
2021/12/13 08:24:00;;;;;;;;;;;;;;;;;;5047276;28;19925;-68
2021/12/13 08:26:26;;;;;;;;;;;;;;;;;;5046672;28;20393;-68
2021/12/13 08:28:52;;;;;;;;;;;;;;;;;;5046507;28;20253;-68
2021/12/13 08:31:20;;;;;;;;;;;;;;;;;;5046016;28;20405;-67
2021/12/13 08:33:46;;;;;;;;;;;;;;;;;;5045274;28;19921;-67
2021/12/13 08:36:13;;;;;;;;;;;;;;;;;;5046222;28;19925;-68
2021/12/13 08:38:39;;;;;;;;;;;;;;;;;;5046514;28;19928;-68
2021/12/13 08:41:05;;;;;;;;;;;;;;;;;;5046837;28;19920;-68
2021/12/13 08:43:31;;;;;;;;;;;;;;;;;;5045432;28;19928;-67
2021/12/13 08:45:57;;;;;;;;;;;;;;;;;;5046427;28;19920;-67
2021/12/13 08:48:23;;;;;;;;;;;;;;;;;;5045240;28;20136;-67
2021/12/13 08:50:49;;;;;;;;;;;;;;;;;;5044793;28;20397;-68
2021/12/13 08:53:15;;;;;;;;;;;;;;;;;;5046175;28;19921;-68
2021/12/13 08:55:41;;;;;;;;;;;;;;;;;;5046119;28;19928;-68
2021/12/13 08:58:07;;;;;;;;;;;;;;;;;;5046057;28;20344;-69
2021/12/13 09:00:35;;;;;;;;;;;;;;;;;;5044161;28;19924;-68
2021/12/13 09:03:01;;;;;;;;;;;;;;;;;;5046476;28;19928;-68
2021/12/13 09:05:27;;;;;;;;;;;;;;;;;;5043472;28;19932;-68
2021/12/13 09:07:53;;;;;;;;;;;;;;;;;;5046210;28;19928;-68
2021/12/13 09:10:19;;;;;;;;;;;;;;;;;;5046390;28;19929;-68
2021/12/13 09:12:46;;;;;;;;;;;;;;;;;;5045938;28;19921;-67
2021/12/13 09:15:14;;;;;;;;;;;;;;;;;;5045468;28;19967;-68
2021/12/13 09:17:41;;;;;;;;;;;;;;;;;;5042329;28;19921;-68
2021/12/13 09:20:07;;;;;;;;;;;;;;;;;;5045855;28;19920;-67
2021/12/13 09:22:33;;;;;;;;;;;;;;;;;;5046254;28;19925;-68
2021/12/13 09:24:59;;;;;;;;;;;;;;;;;;5046107;28;19921;-67
2021/12/13 09:27:25;;;;;;;;;;;;;;;;;;5045483;28;19974;-67
2021/12/13 09:29:51;;;;;;;;;;;;;;;;;;5045724;28;20396;-68
2021/12/13 09:32:17;;;;;;;;;;;;;;;;;;5045727;28;19920;-69
2021/12/13 09:34:45;;;;;;;;;;;;;;;;;;5044305;28;19921;-68
2021/12/13 09:37:11;;;;;;;;;;;;;;;;;;5045704;28;20029;-68
2021/12/13 09:39:37;;;;;;;;;;;;;;;;;;5044894;28;20134;-68
2021/12/13 09:42:03;;;;;;;;;;;;;;;;;;5047820;28;19995;-68
2021/12/13 09:44:31;;;;;;;;;;;;;;;;;;5049584;28;20038;-68
2021/12/13 09:46:58;;;;;;;;;;;;;;;;;;5049632;28;20003;-68
2021/12/13 09:49:24;;;;;;;;;;;;;;;;;;5048222;28;19966;-68
2021/12/13 09:51:50;;;;;;;;;;;;;;;;;;5049528;28;20282;-67
2021/12/13 09:54:16;;;;;;;;;;;;;;;;;;5049239;28;20015;-68
2021/12/13 09:56:46;;;;;;;;;;;;;;;;;;5049100;28;20417;-68
2021/12/13 09:59:12;;;;;;;;;;;;;;;;;;5049077;28;19921;-68
2021/12/13 10:01:38;;;;;;;;;;;;;;;;;;5049526;28;19924;-69
2021/12/13 10:04:04;;;;;;;;;;;;;;;;;;5048413;28;19974;-68
2021/12/13 10:06:30;;;;;;;;;;;;;;;;;;5047831;28;19921;-68
2021/12/13 10:08:56;;;;;;;;;;;;;;;;;;5048645;28;20289;-68
2021/12/13 10:11:22;;;;;;;;;;;;;;;;;;5047498;28;20427;-68
2021/12/13 10:13:48;;;;;;;;;;;;;;;;;;5047653;28;19920;-68
2021/12/13 10:16:14;;;;;;;;;;;;;;;;;;5048527;28;19928;-68
2021/12/13 10:18:40;;;;;;;;;;;;;;;;;;5046991;28;19943;-67
2021/12/13 10:21:06;;;;;;;;;;;;;;;;;;5048564;28;19970;-67
2021/12/13 10:23:32;;;;;;;;;;;;;;;;;;5047621;28;19956;-68
2021/12/13 10:25:58;;;;;;;;;;;;;;;;;;5048824;28;20011;-68
2021/12/13 10:28:24;;;;;;;;;;;;;;;;;;5048220;28;19966;-68
2021/12/13 10:30:50;;;;;;;;;;;;;;;;;;5048487;28;19928;-68
2021/12/13 10:33:17;;;;;;;;;;;;;;;;;;5047849;28;19922;-68
2021/12/13 10:35:43;;;;;;;;;;;;;;;;;;5046531;28;19921;-68
2021/12/13 10:38:09;;;;;;;;;;;;;;;;;;5047821;28;19921;-68
2021/12/13 10:40:35;;;;;;;;;;;;;;;;;;5048662;28;19943;-68
2021/12/13 10:43:01;;;;;;;;;;;;;;;;;;5048034;28;19920;-68
2021/12/13 10:45:27;;;;;;;;;;;;;;;;;;5048150;28;20280;-68
2021/12/13 10:47:53;;;;;;;;;;;;;;;;;;5047558;28;20369;-68
2021/12/13 10:50:19;;;;;;;;;;;;;;;;;;5048465;28;19921;-68
2021/12/13 10:52:47;;;;;;;;;;;;;;;;;;5047926;28;19935;-68
2021/12/13 10:55:14;;;;;;;;;;;;;;;;;;5048226;28;19928;-68
2021/12/13 10:57:43;;;;;;;;;;;;;;;;;;5048561;28;19921;-68
2021/12/13 11:00:09;;;;;;;;;;;;;;;;;;5044725;28;19928;-68
2021/12/13 11:02:35;;;;;;;;;;;;;;;;;;5045296;28;19943;-69
2021/12/13 11:05:01;;;;;;;;;;;;;;;;;;5045605;28;19921;-68
2021/12/13 11:07:27;;;;;;;;;;;;;;;;;;5047987;28;19921;-68
2021/12/13 11:09:53;;;;;;;;;;;;;;;;;;5047950;28;19925;-68
2021/12/13 11:12:19;;;;;;;;;;;;;;;;;;5047683;28;20399;-68
2021/12/13 11:14:45;;;;;;;;;;;;;;;;;;5047335;28;20012;-68
2021/12/13 11:17:11;;;;;;;;;;;;;;;;;;5048172;28;19946;-68
2021/12/13 11:19:37;;;;;;;;;;;;;;;;;;5046870;28;19925;-68
2021/12/13 11:22:03;;;;;;;;;;;;;;;;;;5047251;28;19921;-67
2021/12/13 11:24:29;;;;;;;;;;;;;;;;;;5047153;28;19928;-70
2021/12/13 11:26:55;;;;;;;;;;;;;;;;;;5046435;28;20398;-72
2021/12/13 11:29:21;;;;;;;;;;;;;;;;;;5046743;28;19940;-67
2021/12/13 11:31:47;;;;;;;;;;;;;;;;;;5047355;28;19927;-69
2021/12/13 11:34:13;;;;;;;;;;;;;;;;;;5039359;28;19928;-69
2021/12/13 11:36:39;;;;;;;;;;;;;;;;;;5043829;28;19929;-68
2021/12/13 11:39:05;;;;;;;;;;;;;;;;;;5046782;28;20157;-68
2021/12/13 11:41:32;;;;;;;;;;;;;;;;;;5044196;28;19948;-68
2021/12/13 11:43:58;;;;;;;;;;;;;;;;;;5044678;28;19924;-68
2021/12/13 11:46:26;;;;;;;;;;;;;;;;;;5045959;28;19920;-68
2021/12/13 11:48:52;;;;;;;;;;;;;;;;;;5043504;28;19921;-69
2021/12/13 11:51:19;;;;;;;;;;;;;;;;;;5046732;28;19927;-68
2021/12/13 11:53:45;;;;;;;;;;;;;;;;;;5041662;28;20095;-69
2021/12/13 11:56:11;;;;;;;;;;;;;;;;;;5041163;28;20597;-68
2021/12/13 11:58:37;;;;;;;;;;;;;;;;;;5045513;28;19921;-68
2021/12/13 12:01:03;;;;;;;;;;;;;;;;;;5046108;28;19929;-68
2021/12/13 12:03:29;;;;;;;;;;;;;;;;;;5044698;28;21309;-68
2021/12/13 12:05:55;;;;;;;;;;;;;;;;;;5046074;28;19924;-68
2021/12/13 12:08:25;;;;;;;;;;;;;;;;;;5046522;28;19974;-68
2021/12/13 12:10:51;;;;;;;;;;;;;;;;;;5045300;28;20289;-68
2021/12/13 12:13:19;;;;;;;;;;;;;;;;;;5045637;28;20361;-69
2021/12/13 12:15:45;;;;;;;;;;;;;;;;;;5047112;28;19925;-68
2021/12/13 12:18:11;;;;;;;;;;;;;;;;;;5045797;28;19959;-68
2021/12/13 12:20:37;;;;;;;;;;;;;;;;;;5046221;28;20758;-68
2021/12/13 12:23:03;;;;;;;;;;;;;;;;;;5046170;28;20320;-68
2021/12/13 12:25:29;;;;;;;;;;;;;;;;;;5046519;28;19928;-68
2021/12/13 12:27:55;;;;;;;;;;;;;;;;;;5039517;28;20673;-69
2021/12/13 12:30:21;;;;;;;;;;;;;;;;;;5043498;28;20008;-69
2021/12/13 12:32:47;;;;;;;;;;;;;;;;;;5043833;28;20004;-70
2021/12/13 12:35:14;;;;;;;;;;;;;;;;;;5042907;28;19939;-69
2021/12/13 12:37:40;;;;;;;;;;;;;;;;;;5044421;28;19928;-69
2021/12/13 12:40:06;;;;;;;;;;;;;;;;;;5045477;28;19921;-69
2021/12/13 12:42:32;;;;;;;;;;;;;;;;;;5045681;28;19928;-69
2021/12/13 12:44:58;;;;;;;;;;;;;;;;;;5045936;28;19928;-69
2021/12/13 12:47:24;;;;;;;;;;;;;;;;;;5045383;28;19921;-70
2021/12/13 12:49:50;;;;;;;;;;;;;;;;;;5043608;28;19921;-69
2021/12/13 12:52:16;;;;;;;;;;;;;;;;;;5045721;28;19927;-69
2021/12/13 12:54:42;;;;;;;;;;;;;;;;;;5045950;28;19920;-69
2021/12/13 12:57:08;;;;;;;;;;;;;;;;;;5045076;28;19964;-69
2021/12/13 12:59:36;;;;;;;;;;;;;;;;;;5045211;28;20336;-69
2021/12/13 13:02:04;;;;;;;;;;;;;;;;;;5044458;28;19925;-70
2021/12/13 13:04:30;;;;;;;;;;;;;;;;;;5044424;28;19920;-69
2021/12/13 13:06:56;;;;;;;;;;;;;;;;;;5045274;28;19924;-70
2021/12/13 13:09:22;;;;;;;;;;;;;;;;;;5043740;28;20401;-69
2021/12/13 13:11:48;;;;;;;;;;;;;;;;;;5046004;28;19980;-71
2021/12/13 13:14:14;;;;;;;;;;;;;;;;;;5044933;28;19967;-70
2021/12/13 13:16:41;;;;;;;;;;;;;;;;;;5046899;28;20348;-69
2021/12/13 13:19:08;;;;;;;;;;;;;;;;;;5049278;28;19924;-69
2021/12/13 13:21:34;;;;;;;;;;;;;;;;;;5049811;28;19928;-70
2021/12/13 13:24:00;;;;;;;;;;;;;;;;;;5049051;28;20439;-70
2021/12/13 13:26:26;;;;;;;;;;;;;;;;;;5048708;28;20288;-70
2021/12/13 13:28:53;;;;;;;;;;;;;;;;;;5044565;28;19967;-70
2021/12/13 13:31:19;;;;;;;;;;;;;;;;;;5049845;28;19920;-70
2021/12/13 13:33:45;;;;;;;;;;;;;;;;;;5047538;28;20070;-70
2021/12/13 13:36:11;;;;;;;;;;;;;;;;;;5049140;28;19931;-70
2021/12/13 13:38:37;;;;;;;;;;;;;;;;;;5046422;28;20305;-69
2021/12/13 13:41:03;;;;;;;;;;;;;;;;;;5047753;28;20753;-69
2021/12/13 13:43:31;;;;;;;;;;;;;;;;;;5049140;28;20320;-70
2021/12/13 13:45:57;;;;;;;;;;;;;;;;;;5049250;28;19924;-70
2021/12/13 13:48:23;;;;;;;;;;;;;;;;;;5046924;28;20294;-70
2021/12/13 13:50:49;;;;;;;;;;;;;;;;;;5048812;28;20408;-70
2021/12/13 13:53:15;;;;;;;;;;;;;;;;;;5047237;28;20389;-69
2021/12/13 13:55:41;;;;;;;;;;;;;;;;;;5048742;28;20027;-69
2021/12/13 13:58:07;;;;;;;;;;;;;;;;;;5047126;28;20389;-70
2021/12/13 14:00:33;;;;;;;;;;;;;;;;;;5047889;28;19939;-69
2021/12/13 14:02:59;;;;;;;;;;;;;;;;;;5047758;28;19921;-70
2021/12/13 14:05:25;;;;;;;;;;;;;;;;;;5048031;28;19921;-70
2021/12/13 14:07:52;;;;;;;;;;;;;;;;;;5048589;28;20370;-70
2021/12/13 14:10:18;;;;;;;;;;;;;;;;;;5047991;28;19959;-70
2021/12/13 14:12:45;;;;;;;;;;;;;;;;;;5048090;28;19975;-70
2021/12/13 14:15:11;;;;;;;;;;;;;;;;;;5047764;28;19975;-69
2021/12/13 14:17:37;;;;;;;;;;;;;;;;;;5046270;28;19920;-69
2021/12/13 14:20:03;;;;;;;;;;;;;;;;;;5047688;28;19981;-69
2021/12/13 14:22:29;;;;;;;;;;;;;;;;;;5047794;28;19921;-69
2021/12/13 14:24:55;;;;;;;;;;;;;;;;;;5046570;28;20377;-69
2021/12/13 14:27:22;;;;;;;;;;;;;;;;;;5046942;28;19921;-71
2021/12/13 14:29:48;;;;;;;;;;;;;;;;;;5047124;28;19921;-71
2021/12/13 14:32:14;;;;;;;;;;;;;;;;;;5047720;28;19974;-70
2021/12/13 14:34:40;;;;;;;;;;;;;;;;;;5047302;28;19925;-70
2021/12/13 14:37:07;;;;;;;;;;;;;;;;;;5049044;28;19920;-70
2021/12/13 14:39:33;;;;;;;;;;;;;;;;;;5046978;28;20039;-70
2021/12/13 14:41:59;;;;;;;;;;;;;;;;;;5047016;28;19936;-70
2021/12/13 14:44:25;;;;;;;;;;;;;;;;;;5047301;28;19920;-69
2021/12/13 14:46:51;;;;;;;;;;;;;;;;;;5047558;28;19925;-70
2021/12/13 14:49:17;;;;;;;;;;;;;;;;;;5045841;28;20465;-71
2021/12/13 14:51:43;;;;;;;;;;;;;;;;;;5045961;28;20389;-70
2021/12/13 14:54:09;;;;;;;;;;;;;;;;;;5048017;28;20033;-70
2021/12/13 14:56:35;;;;;;;;;;;;;;;;;;5046817;28;20047;-70
2021/12/13 14:59:02;;;;;;;;;;;;;;;;;;5048256;28;19928;-70
2021/12/13 15:01:28;;;;;;;;;;;;;;;;;;5046665;28;19927;-71
2021/12/13 15:03:54;;;;;;;;;;;;;;;;;;5046739;28;20015;-71
2021/12/13 15:06:20;;;;;;;;;;;;;;;;;;5048218;28;20011;-69
2021/12/13 15:08:46;;;;;;;;;;;;;;;;;;5047574;28;19935;-69
2021/12/13 15:11:12;;;;;;;;;;;;;;;;;;5046709;28;19920;-70
2021/12/13 15:13:38;;;;;;;;;;;;;;;;;;5047565;28;20405;-70
2021/12/13 15:16:05;;;;;;;;;;;;;;;;;;5047081;28;20377;-69
2021/12/13 15:18:31;;;;;;;;;;;;;;;;;;5046161;28;19924;-69
2021/12/13 15:20:57;;;;;;;;;;;;;;;;;;5046744;28;19978;-69
2021/12/13 15:23:23;;;;;;;;;;;;;;;;;;5046039;28;19920;-70
2021/12/13 15:25:49;;;;;;;;;;;;;;;;;;5048025;28;20007;-71
2021/12/13 15:28:15;;;;;;;;;;;;;;;;;;5047213;28;19963;-70
2021/12/13 15:30:41;;;;;;;;;;;;;;;;;;5044265;28;19924;-69
2021/12/13 15:33:07;;;;;;;;;;;;;;;;;;5045433;28;19927;-70
2021/12/13 15:35:33;;;;;;;;;;;;;;;;;;5045195;28;19927;-70
2021/12/13 15:37:59;;;;;;;;;;;;;;;;;;5047250;28;19943;-68
2021/12/13 15:40:28;;;;;;;;;;;;;;;;;;5046312;28;19928;-70
2021/12/13 15:42:54;;;;;;;;;;;;;;;;;;5044866;28;19927;-70
2021/12/13 15:45:20;;;;;;;;;;;;;;;;;;5047853;28;19973;-70
2021/12/13 15:50:31;;;;;;;;;;;;;;;;;;5044967;28;20415;-69
2021/12/13 15:52:57;;;;;;;;;;;;;;;;;;5046707;28;19916;-70
2021/12/13 15:55:23;;;;;;;;;;;;;;;;;;5045620;28;19974;-69
2021/12/13 15:57:49;;;;;;;;;;;;;;;;;;5045923;28;19966;-70
2021/12/13 16:00:15;;;;;;;;;;;;;;;;;;5046927;28;19916;-69
2021/12/13 16:02:41;;;;;;;;;;;;;;;;;;5045244;28;19925;-69
2021/12/13 16:05:07;;;;;;;;;;;;;;;;;;5046896;28;19924;-69
2021/12/13 16:07:34;;;;;;;;;;;;;;;;;;5045202;28;19928;-69